Time;durP1;ratioP1;P1;durP2;ratioP2;P2;SDS_P1;SDS_P2;PMS_P1;PMS_P2;Temp;Humidity;BMP_temperature;BMP_pressure;BME280_temperature;BME280_humidity;BME280_pressure;Samples;Min_cycle;Max_cycle;Signal;HPM_P1;HPM_P2
2022/10/06 00:00:51;;;;;;;14.25;10.20;;;;;;;22.59;43.81;96153.81;4999765;28;20145;-64
2022/10/06 00:03:17;;;;;;;10.95;8.70;;;;;;;22.57;44.20;96152.78;5000706;28;20160;-63
2022/10/06 00:05:43;;;;;;;12.00;9.15;;;;;;;22.58;43.87;96155.03;4987191;28;20125;-64
2022/10/06 00:08:08;;;;;;;13.18;10.02;;;;;;;21.70;44.08;96023.75;4987531;28;20038;-63
2022/10/06 00:10:34;;;;;;;13.43;9.77;;;;;;;22.64;44.18;96155.09;5001575;28;20569;-64
2022/10/06 00:12:59;;;;;;;12.75;9.40;;;;;;;22.60;44.08;96165.44;4999896;28;20038;-67
2022/10/06 00:15:27;;;;;;;12.82;9.57;;;;;;;22.55;44.04;96152.50;4996854;28;20133;-64
2022/10/06 00:17:53;;;;;;;14.00;9.75;;;;;;;22.54;44.31;96156.47;5000592;28;20052;-65
2022/10/06 00:20:18;;;;;;;14.73;10.48;;;;;;;22.57;44.44;96153.56;5002734;28;20136;-63
2022/10/06 00:22:46;;;;;;;12.27;9.65;;;;;;;22.50;44.21;96153.22;4989308;28;20038;-66
2022/10/06 00:25:13;;;;;;;14.32;9.85;;;;;;;22.38;44.39;96121.63;4985347;28;20033;-64
2022/10/06 00:27:40;;;;;;;13.27;9.52;;;;;;;22.56;44.17;96148.59;4988292;28;20503;-65
2022/10/06 00:30:11;;;;;;;14.00;10.43;;;;;;;22.52;43.92;96131.69;4993907;28;20310;-65
2022/10/06 00:32:37;;;;;;;14.15;10.45;;;;;;;22.52;43.97;96143.31;4999193;28;20457;-64
2022/10/06 00:35:02;;;;;;;19.83;10.73;;;;;;;22.48;44.10;96142.03;4986871;28;20080;-66
2022/10/06 00:37:28;;;;;;;13.07;9.88;;;;;;;22.09;44.11;96072.75;4996304;28;20044;-65
2022/10/06 00:39:54;;;;;;;13.68;10.27;;;;;;;22.55;44.11;96136.19;4990465;28;20673;-66
2022/10/06 00:42:27;;;;;;;14.15;10.90;;;;;;;22.51;44.30;96132.91;5000031;28;20072;-67
2022/10/06 00:44:53;;;;;;;12.55;9.57;;;;;;;22.52;44.16;96137.88;4997750;28;20060;-68
2022/10/06 00:47:19;;;;;;;13.65;9.50;;;;;;;22.06;44.13;96056.59;4964504;28;20473;-67
2022/10/06 00:49:45;;;;;;;14.65;10.35;;;;;;;22.43;44.28;96118.22;4995720;28;20037;-65
2022/10/06 00:52:13;;;;;;;14.70;10.18;;;;;;;22.49;44.36;96121.75;4996869;28;20176;-65
2022/10/06 00:54:38;;;;;;;13.20;9.95;;;;;;;22.53;44.11;96114.16;4966303;28;20045;-63
2022/10/06 00:57:04;;;;;;;15.82;10.40;;;;;;;22.53;44.27;96111.41;4998811;28;20522;-65
2022/10/06 00:59:30;;;;;;;13.75;10.23;;;;;;;22.50;44.42;96112.38;4996915;28;20101;-64
2022/10/06 01:02:02;;;;;;;14.27;10.70;;;;;;;22.52;44.14;96109.91;4994048;28;20847;-67
2022/10/06 01:04:37;;;;;;;12.45;9.93;;;;;;;22.33;44.42;96065.16;4995164;28;20034;-67
2022/10/06 01:07:02;;;;;;;13.80;10.88;;;;;;;22.53;44.38;96100.53;4996353;28;20481;-64
2022/10/06 01:09:28;;;;;;;13.95;10.50;;;;;;;22.53;44.00;96100.53;4978782;28;20049;-64
2022/10/06 01:11:55;;;;;;;13.35;9.75;;;;;;;22.07;44.48;96042.53;4979781;28;20045;-65
2022/10/06 01:14:21;;;;;;;14.63;10.30;;;;;;;22.51;44.10;96098.28;4988619;28;20029;-65
2022/10/06 01:16:50;;;;;;;12.57;9.95;;;;;;;22.28;44.39;96057.66;4999995;28;20053;-65
2022/10/06 01:19:30;;;;;;;12.55;9.93;;;;;;;22.43;44.24;96085.56;4978023;28;20052;-65
2022/10/06 01:21:56;;;;;;;14.30;10.20;;;;;;;22.45;44.39;96088.53;4998478;28;20583;-65
2022/10/06 01:24:21;;;;;;;12.95;9.75;;;;;;;22.46;44.62;96079.16;4984516;28;20133;-66
2022/10/06 01:26:47;;;;;;;15.85;10.32;;;;;;;22.48;44.16;96082.16;4991807;28;20100;-65
2022/10/06 01:29:13;;;;;;;14.55;10.52;;;;;;;22.26;44.15;96053.94;4977295;28;20046;-64
2022/10/06 01:31:38;;;;;;;13.32;10.15;;;;;;;22.08;44.24;96027.72;4966790;28;20428;-64
2022/10/06 01:34:04;;;;;;;13.27;10.30;;;;;;;22.43;44.27;96085.56;4999114;28;20045;-64
2022/10/06 01:36:29;;;;;;;13.50;10.13;;;;;;;22.09;44.39;96034.66;4979195;28;20053;-65
2022/10/06 01:38:55;;;;;;;12.02;9.43;;;;;;;22.43;44.22;96077.38;5001418;28;20435;-64
2022/10/06 01:41:21;;;;;;;13.05;10.02;;;;;;;22.19;44.44;96055.06;5000168;28;20108;-64
2022/10/06 01:43:47;;;;;;;12.73;9.48;;;;;;;22.46;44.24;96079.16;5003861;28;20034;-65
2022/10/06 01:46:12;;;;;;;12.73;9.98;;;;;;;22.43;44.33;96080.13;5000864;28;20405;-65
2022/10/06 01:48:38;;;;;;;13.35;9.95;;;;;;;22.40;44.29;96077.59;4999811;28;20071;-65
2022/10/06 01:51:03;;;;;;;12.85;9.48;;;;;;;22.35;44.46;96068.16;4979129;28;20516;-64
2022/10/06 01:53:29;;;;;;;12.43;9.82;;;;;;;21.91;44.14;95998.06;4997100;28;20018;-64
2022/10/06 01:55:58;;;;;;;12.45;9.40;;;;;;;22.43;44.48;96080.88;4999362;28;20042;-65
2022/10/06 01:58:23;;;;;;;14.10;9.82;;;;;;;22.24;44.38;96062.59;4995757;28;20116;-64
2022/10/06 02:00:49;;;;;;;12.45;9.68;;;;;;;22.13;44.15;96065.13;4982638;28;20196;-64
2022/10/06 02:03:15;;;;;;;14.55;10.05;;;;;;;22.41;44.32;96088.00;4978219;28;20517;-64
2022/10/06 02:05:41;;;;;;;13.07;9.73;;;;;;;22.31;44.26;96089.38;4996867;28;20133;-64
2022/10/06 02:08:08;;;;;;;12.80;9.63;;;;;;;22.10;44.42;96036.13;4999105;28;20038;-65
2022/10/06 02:10:34;;;;;;;12.63;9.68;;;;;;;22.40;44.77;96088.50;4997746;28;20065;-65
2022/10/06 02:12:59;;;;;;;13.20;9.68;;;;;;;22.43;44.21;96085.56;4999550;28;20086;-73
2022/10/06 02:15:26;;;;;;;13.57;9.52;;;;;;;22.02;44.48;96020.72;5001051;28;20053;-74
2022/10/06 02:17:52;;;;;;;13.02;9.70;;;;;;;22.42;44.25;96084.06;5002173;28;20090;-74
2022/10/06 02:20:18;;;;;;;14.93;9.77;;;;;;;21.78;44.58;95986.75;4984063;28;20574;-70
2022/10/06 02:22:43;;;;;;;14.00;10.25;;;;;;;21.86;44.32;96009.63;5001763;28;20134;-70
2022/10/06 02:25:10;;;;;;;12.55;9.40;;;;;;;22.31;44.44;96064.88;5003776;28;20038;-70
2022/10/06 02:27:38;;;;;;;14.38;10.52;;;;;;;22.37;44.08;96076.56;4987231;28;20106;-71
2022/10/06 02:30:05;;;;;;;11.77;9.07;;;;;;;22.37;44.60;96076.56;5001389;28;20085;-70
2022/10/06 02:32:34;;;;;;;13.38;9.70;;;;;;;22.37;44.63;96076.56;4957789;28;20038;-64
2022/10/06 02:35:00;;;;;;;13.95;9.77;;;;;;;22.38;44.41;96078.09;4965041;28;20126;-66
2022/10/06 02:37:25;;;;;;;13.70;10.07;;;;;;;21.85;44.22;95997.25;4997530;28;20029;-64
2022/10/06 02:39:51;;;;;;;13.55;9.88;;;;;;;22.36;44.28;96074.34;4999913;28;20038;-66
2022/10/06 02:42:18;;;;;;;14.18;9.60;;;;;;;22.28;44.45;96084.13;5004868;28;20148;-66
2022/10/06 02:44:44;;;;;;;12.50;9.65;;;;;;;22.33;44.35;96086.16;5000160;28;20033;-64
2022/10/06 02:47:13;;;;;;;12.52;9.27;;;;;;;22.15;44.23;96053.75;5001664;28;20133;-65
2022/10/06 02:49:39;;;;;;;12.20;9.30;;;;;;;22.36;44.57;96085.97;4999438;28;20029;-64
2022/10/06 02:52:04;;;;;;;13.48;9.60;;;;;;;22.33;44.22;96086.94;4999138;28;20042;-64
2022/10/06 02:54:30;;;;;;;13.25;9.98;;;;;;;22.36;44.34;96085.97;4998431;28;20038;-64
2022/10/06 02:56:55;;;;;;;12.52;9.60;;;;;;;22.10;44.44;96062.59;4997909;28;20022;-65
2022/10/06 02:59:21;;;;;;;13.07;9.82;;;;;;;22.36;44.52;96090.66;4997700;28;20441;-65
2022/10/06 03:01:46;;;;;;;13.43;10.07;;;;;;;22.25;44.42;96074.94;4979237;28;20056;-64
2022/10/06 03:04:12;;;;;;;12.88;9.50;;;;;;;22.31;44.66;96097.53;4977232;28;20120;-66
2022/10/06 03:06:38;;;;;;;13.10;9.50;;;;;;;22.34;44.38;96087.69;4994301;28;20042;-66
2022/10/06 03:09:04;;;;;;;12.80;9.25;;;;;;;22.17;44.36;96068.38;4997405;28;20042;-66
2022/10/06 03:11:32;;;;;;;11.82;9.20;;;;;;;22.36;44.41;96085.97;4987527;28;20024;-64
2022/10/06 03:13:57;;;;;;;11.88;8.93;;;;;;;22.04;43.97;96043.47;5003018;28;20061;-65
2022/10/06 03:16:26;;;;;;;12.98;9.38;;;;;;;22.34;44.28;96091.13;5004301;28;20054;-66
2022/10/06 03:18:53;;;;;;;13.90;9.75;;;;;;;22.38;44.01;96080.81;5000879;28;20081;-66
2022/10/06 03:21:22;;;;;;;11.93;9.38;;;;;;;22.33;44.61;96081.50;5000339;28;20072;-65
2022/10/06 03:23:49;;;;;;;12.48;9.25;;;;;;;22.32;44.31;96084.69;5003259;28;20030;-65
2022/10/06 03:26:16;;;;;;;12.55;9.57;;;;;;;22.36;44.24;96091.44;5001114;28;20115;-66
2022/10/06 03:28:42;;;;;;;13.02;9.07;;;;;;;22.33;44.42;96092.38;5001742;28;20087;-66
2022/10/06 03:31:07;;;;;;;12.95;9.68;;;;;;;22.33;44.13;96081.50;5001252;28;20550;-66
2022/10/06 03:33:33;;;;;;;12.85;9.38;;;;;;;22.34;44.08;96087.69;5002348;28;20581;-66
2022/10/06 03:36:20;;;;;;;13.40;9.68;;;;;;;22.34;44.33;96082.97;4997265;28;20724;-66
2022/10/06 03:38:46;;;;;;;11.90;9.43;;;;;;;21.92;44.39;96019.34;5002299;28;20022;-65
2022/10/06 03:41:19;;;;;;;12.77;9.48;;;;;;;22.18;44.27;96059.00;5000717;28;20644;-64
2022/10/06 03:43:46;;;;;;;11.70;8.95;;;;;;;22.30;44.26;96070.78;4967327;28;20037;-63
2022/10/06 03:46:12;;;;;;;12.27;9.10;;;;;;;22.22;44.33;96067.72;5000882;28;20034;-66
2022/10/06 03:48:38;;;;;;;10.98;9.00;;;;;;;22.09;44.19;96031.94;5000027;28;20038;-64
2022/10/06 03:51:04;;;;;;;12.98;9.10;;;;;;;22.30;44.44;96071.56;4995143;28;20507;-64
2022/10/06 03:53:29;;;;;;;14.25;9.80;;;;;;;22.04;44.34;96026.44;4998773;28;20062;-64
2022/10/06 03:56:05;;;;;;;12.77;9.60;;;;;;;22.12;44.40;96043.81;4999060;28;20041;-64
2022/10/06 03:58:31;;;;;;;11.25;8.98;;;;;;;22.29;44.42;96080.94;4961436;28;20030;-67
2022/10/06 04:01:13;;;;;;;12.57;9.15;;;;;;;21.72;44.41;95991.38;4998436;28;20041;-65
2022/10/06 04:03:39;;;;;;;12.57;9.50;;;;;;;21.89;44.31;96020.28;4987230;28;20042;-64
2022/10/06 04:06:06;;;;;;;13.88;9.40;;;;;;;21.53;44.46;95998.31;5000155;28;20084;-64
2022/10/06 04:08:33;;;;;;;12.77;9.23;;;;;;;22.06;44.39;96041.06;4998548;28;20026;-69
2022/10/06 04:11:12;;;;;;;13.05;10.15;;;;;;;22.30;44.79;96070.78;5003104;28;20076;-65
2022/10/06 04:13:38;;;;;;;12.27;9.18;;;;;;;22.30;44.27;96082.44;5002450;28;20042;-64
2022/10/06 04:16:12;;;;;;;12.77;9.70;;;;;;;22.23;44.45;96077.41;4984835;28;20707;-65
2022/10/06 04:18:39;;;;;;;12.95;9.27;;;;;;;22.27;44.40;96069.78;5001694;28;20045;-68
2022/10/06 04:21:04;;;;;;;13.27;9.48;;;;;;;22.14;44.44;96072.06;4984282;28;20053;-72
2022/10/06 04:23:30;;;;;;;11.68;9.02;;;;;;;22.00;44.37;96032.06;5004131;28;20053;-70
2022/10/06 04:25:59;;;;;;;14.18;9.63;;;;;;;22.17;44.25;96057.50;5001351;28;20492;-73
2022/10/06 04:28:25;;;;;;;11.45;9.00;;;;;;;22.17;44.29;96073.84;5000646;28;20057;-73
2022/10/06 04:30:57;;;;;;;13.60;9.48;;;;;;;21.94;44.15;96028.53;4986270;28;20050;-72
2022/10/06 04:33:23;;;;;;;12.38;9.30;;;;;;;21.95;44.32;96038.19;5003233;28;20025;-68
2022/10/06 04:35:57;;;;;;;12.95;9.25;;;;;;;21.74;44.32;96005.28;5003073;28;20029;-69
2022/10/06 04:38:22;;;;;;;12.77;9.27;;;;;;;22.26;44.36;96092.78;4973079;28;20120;-65
2022/10/06 04:40:48;;;;;;;12.88;9.20;;;;;;;22.27;44.33;96094.28;4999717;28;20562;-64
2022/10/06 04:43:14;;;;;;;12.57;9.05;;;;;;;22.35;44.38;96089.91;4999229;28;20026;-65
2022/10/06 04:45:39;;;;;;;12.57;9.52;;;;;;;22.09;44.34;96033.91;4998340;28;20413;-63
2022/10/06 04:48:05;;;;;;;13.60;9.75;;;;;;;22.26;44.58;96043.78;4999316;28;21552;-65
2022/10/06 04:50:30;;;;;;;13.63;9.45;;;;;;;22.10;44.43;96025.25;4994878;28;20699;-66
2022/10/06 04:52:56;;;;;;;11.68;9.13;;;;;;;22.19;44.42;96049.59;4991269;28;20515;-68
2022/10/06 04:55:21;;;;;;;12.48;9.52;;;;;;;22.26;44.36;96049.25;4996679;28;20077;-63
2022/10/06 04:57:47;;;;;;;11.85;8.98;;;;;;;22.49;44.55;96089.09;4997347;28;20033;-63
2022/10/06 05:00:21;;;;;;;13.00;9.00;;;;;;;22.32;44.72;96058.22;4994859;28;20089;-63
2022/10/06 05:02:47;;;;;;;11.07;8.18;;;;;;;22.34;44.39;96050.31;4996646;28;20439;-62
2022/10/06 05:05:12;;;;;;;13.02;9.27;;;;;;;22.26;44.44;96043.78;4996250;28;20041;-63
2022/10/06 05:07:37;;;;;;;11.73;8.88;;;;;;;22.38;44.56;96048.16;4997404;28;20611;-63
2022/10/06 05:10:03;;;;;;;12.90;8.93;;;;;;;22.71;44.54;96100.25;4996647;28;20148;-62
2022/10/06 05:12:29;;;;;;;11.95;8.85;;;;;;;22.55;44.48;96081.75;4998489;28;20037;-62
2022/10/06 05:14:55;;;;;;;12.23;8.82;;;;;;;22.74;44.32;96099.28;4999900;28;20049;-63
2022/10/06 05:17:21;;;;;;;12.63;9.25;;;;;;;22.71;44.14;96083.91;4996438;28;20069;-63
2022/10/06 05:19:46;;;;;;;12.77;9.38;;;;;;;22.33;44.15;96021.63;4982870;28;20172;-63
2022/10/06 05:22:12;;;;;;;11.70;8.70;;;;;;;22.88;43.97;96093.00;4999697;28;20068;-64
2022/10/06 05:24:38;;;;;;;11.43;9.38;;;;;;;22.97;44.30;96096.34;5005623;28;20073;-64
2022/10/06 05:27:05;;;;;;;11.18;8.77;;;;;;;22.62;44.12;96043.22;5000730;28;20140;-65
2022/10/06 05:29:30;;;;;;;11.82;9.02;;;;;;;22.61;45.90;96041.72;4998419;28;20473;-65
2022/10/06 05:31:56;;;;;;;11.85;9.18;;;;;;;22.98;44.93;96093.13;4996316;28;20045;-64
2022/10/06 05:34:22;;;;;;;10.15;8.25;;;;;;;23.03;46.95;96089.72;4993051;28;20074;-65
2022/10/06 05:36:47;;;;;;;11.95;9.07;;;;;;;23.05;45.17;96090.00;4999676;28;20355;-68
2022/10/06 05:39:13;;;;;;;12.15;8.68;;;;;;;22.94;45.18;96054.47;5001668;28;20049;-65
2022/10/06 05:41:38;;;;;;;11.48;8.55;;;;;;;23.05;45.07;96081.06;4997265;28;20025;-65
2022/10/06 05:44:04;;;;;;;13.05;9.02;;;;;;;23.19;44.92;96097.31;5008013;28;20046;-66
2022/10/06 05:46:30;;;;;;;11.85;8.82;;;;;;;23.15;45.01;96096.78;4993428;28;20057;-67
2022/10/06 05:48:57;;;;;;;10.85;8.80;;;;;;;23.18;45.41;96100.50;4980114;28;20037;-66
2022/10/06 05:51:27;;;;;;;11.50;8.07;;;;;;;22.87;45.05;96034.28;4988285;28;20037;-67
2022/10/06 05:53:52;;;;;;;10.98;8.55;;;;;;;23.32;44.63;96100.41;4980769;28;20030;-67
2022/10/06 05:56:20;;;;;;;13.00;8.65;;;;;;;23.28;45.08;96099.84;4999193;28;20014;-67
2022/10/06 05:58:46;;;;;;;11.98;8.48;;;;;;;23.26;44.64;96099.59;4970062;28;20030;-68
2022/10/06 06:01:16;;;;;;;10.57;7.93;;;;;;;23.25;44.97;96111.72;4992109;28;20124;-66
2022/10/06 06:03:42;;;;;;;11.50;7.65;;;;;;;23.29;44.37;96111.50;5007257;28;20061;-69
2022/10/06 06:06:38;;;;;;;11.65;7.32;;;;;;;23.30;44.55;96119.19;5003415;28;20025;-68
2022/10/06 06:09:22;;;;;;;10.30;7.80;;;;;;;23.32;44.39;96114.03;4979353;28;20151;-68
2022/10/06 06:11:48;;;;;;;10.18;8.00;;;;;;;23.41;44.77;96103.69;4977049;28;20026;-68
2022/10/06 06:14:16;;;;;;;11.48;7.78;;;;;;;23.39;44.51;96094.50;4978770;28;20125;-68
2022/10/06 06:16:41;;;;;;;10.18;7.85;;;;;;;23.16;44.23;96068.28;4983571;28;20057;-67
2022/10/06 06:19:08;;;;;;;10.05;7.78;;;;;;;23.42;44.75;96104.44;4968041;28;20034;-67
2022/10/06 06:21:36;;;;;;;9.13;7.22;;;;;;;23.36;44.55;96081.84;4999241;28;20041;-67
2022/10/06 06:24:02;;;;;;;10.23;7.68;;;;;;;23.45;44.35;96119.81;4987649;28;20109;-67
2022/10/06 06:26:29;;;;;;;10.85;7.32;;;;;;;23.51;44.17;96117.91;5003130;28;20550;-68
2022/10/06 06:29:02;;;;;;;10.18;7.80;;;;;;;23.21;44.67;96083.94;4981738;28;20034;-67
2022/10/06 06:31:31;;;;;;;11.02;7.13;;;;;;;23.48;44.28;96118.84;5001733;28;20117;-67
2022/10/06 06:33:58;;;;;;;11.60;7.50;;;;;;;23.36;44.31;96100.91;4973868;28;20026;-67
2022/10/06 06:36:28;;;;;;;10.32;7.28;;;;;;;23.48;44.27;96124.31;4998970;28;20597;-68
2022/10/06 06:38:55;;;;;;;10.90;7.90;;;;;;;23.39;44.21;96127.22;4985599;28;20041;-68
2022/10/06 06:41:25;;;;;;;9.15;7.22;;;;;;;23.35;44.47;96104.88;5016886;28;20105;-67
2022/10/06 06:43:54;;;;;;;10.50;7.32;;;;;;;22.84;44.71;96054.31;4987494;28;20038;-67
2022/10/06 06:46:22;;;;;;;9.43;7.20;;;;;;;22.65;44.55;96042.25;4989683;28;20042;-67
2022/10/06 06:48:49;;;;;;;12.27;7.68;;;;;;;23.33;44.18;96134.59;4999084;28;20069;-68
2022/10/06 06:51:14;;;;;;;10.38;7.93;;;;;;;23.12;44.14;96103.19;4988941;28;20042;-67
2022/10/06 06:53:40;;;;;;;9.23;7.00;;;;;;;23.20;44.58;96112.44;5003757;28;20037;-67
2022/10/06 06:56:07;;;;;;;9.68;7.00;;;;;;;23.23;44.26;96125.09;5002084;28;20429;-70
2022/10/06 06:58:32;;;;;;;10.15;6.97;;;;;;;22.88;44.24;96054.88;5001917;28;20079;-66
2022/10/06 07:01:12;;;;;;;11.00;7.30;;;;;;;23.18;44.62;96103.97;5000380;28;20060;-69
2022/10/06 07:03:38;;;;;;;12.52;7.00;;;;;;;23.06;44.17;96094.22;4990639;28;20037;-68
2022/10/06 07:06:08;;;;;;;10.98;7.13;;;;;;;23.20;44.70;96115.16;4995722;28;20452;-69
2022/10/06 07:08:35;;;;;;;9.85;7.22;;;;;;;23.02;44.34;96084.75;5003795;28;20040;-70
2022/10/06 07:11:13;;;;;;;10.50;7.13;;;;;;;23.14;44.07;96108.91;4999235;28;20065;-70
2022/10/06 07:13:39;;;;;;;9.18;7.25;;;;;;;23.13;44.56;96115.56;4997020;28;20127;-69
2022/10/06 07:27:02;;;;;;;9.35;6.78;;;;;;;22.73;44.70;96054.22;4985704;28;20064;-68
2022/10/06 07:29:27;;;;;;;9.38;6.75;;;;;;;22.86;44.29;96073.66;5002271;28;20735;-69
2022/10/06 07:31:53;;;;;;;9.10;6.95;;;;;;;22.89;44.22;96074.19;5001690;28;20042;-69
2022/10/06 07:34:18;;;;;;;10.55;7.10;;;;;;;22.99;44.52;96094.63;4966265;28;20052;-68
2022/10/06 07:36:45;;;;;;;9.45;6.88;;;;;;;22.91;44.34;96066.31;5000718;28;20038;-68
2022/10/06 07:39:11;;;;;;;9.05;6.65;;;;;;;23.03;44.03;96084.28;4996562;28;20026;-68
2022/10/06 07:41:36;;;;;;;10.20;6.65;;;;;;;23.01;44.63;96097.63;4989439;28;20257;-69
2022/10/06 07:44:04;;;;;;;9.65;6.88;;;;;;;22.89;44.44;96074.19;5015951;28;20044;-68
2022/10/06 07:46:32;;;;;;;7.95;6.45;;;;;;;23.02;44.23;96084.75;5001619;28;20519;-68
2022/10/06 07:48:58;;;;;;;8.63;6.30;;;;;;;23.03;44.03;96089.72;5000738;28;20041;-69
2022/10/06 07:51:26;;;;;;;10.50;7.03;;;;;;;23.08;43.82;96099.94;4999631;28;20061;-69
2022/10/06 07:53:52;;;;;;;9.65;6.40;;;;;;;23.08;44.12;96091.75;5002611;28;20105;-70
2022/10/06 07:56:19;;;;;;;9.18;6.47;;;;;;;23.10;43.98;96094.00;5004789;28;20034;-69
2022/10/06 07:58:48;;;;;;;8.57;6.28;;;;;;;23.07;43.86;96095.69;4990177;28;20429;-67
2022/10/06 08:01:15;;;;;;;9.48;6.57;;;;;;;22.69;43.82;96031.88;5002939;28;20140;-68
2022/10/06 08:03:41;;;;;;;9.43;6.47;;;;;;;22.78;44.01;96048.06;5004599;28;20030;-71
2022/10/06 08:06:13;;;;;;;8.90;6.78;;;;;;;22.87;44.17;96064.25;5003660;28;20700;-70
2022/10/06 08:08:38;;;;;;;8.65;6.20;;;;;;;23.10;43.92;96099.44;5003884;28;20026;-70
2022/10/06 08:11:05;;;;;;;9.35;6.78;;;;;;;23.07;44.31;96090.25;5010586;28;20053;-67
2022/10/06 08:13:50;;;;;;;8.30;6.30;;;;;;;23.13;43.71;96101.94;4998454;28;20049;-69
2022/10/06 08:16:20;;;;;;;8.75;6.50;;;;;;;23.16;44.05;96097.53;5003968;28;20649;-65
2022/10/06 08:18:50;;;;;;;8.07;6.00;;;;;;;23.16;44.08;96092.81;5004097;28;20058;-65
2022/10/06 08:21:17;;;;;;;8.40;6.32;;;;;;;23.04;43.87;96091.22;5000104;28;20377;-71
2022/10/06 08:24:14;;;;;;;9.48;6.53;;;;;;;22.94;43.70;96065.38;5001092;28;20025;-70
2022/10/06 08:26:39;;;;;;;9.57;6.20;;;;;;;23.20;44.12;96098.81;4983211;28;20072;-69
2022/10/06 08:29:05;;;;;;;9.75;6.70;;;;;;;23.05;43.48;96070.91;5004691;28;20034;-70
2022/10/06 08:31:31;;;;;;;8.70;6.57;;;;;;;23.15;43.78;96091.34;4957902;28;20030;-69
2022/10/06 08:33:56;;;;;;;8.98;6.10;;;;;;;23.22;43.85;96090.88;5003357;28;20040;-69
2022/10/06 08:36:25;;;;;;;10.13;6.43;;;;;;;23.12;44.25;96081.41;5003560;28;20156;-71
2022/10/06 08:38:50;;;;;;;9.73;6.65;;;;;;;22.47;43.86;95969.06;5002974;28;20501;-69
2022/10/06 08:41:32;;;;;;;9.15;6.53;;;;;;;23.18;43.81;96074.00;5010910;28;20057;-70
2022/10/06 08:44:03;;;;;;;9.45;6.88;;;;;;;23.00;43.92;96051.78;4952526;28;20050;-71
2022/10/06 08:46:45;;;;;;;9.80;6.95;;;;;;;23.20;43.82;96082.44;4976243;28;20120;-71
2022/10/06 08:49:15;;;;;;;9.02;6.45;;;;;;;23.18;43.58;96076.72;4987031;28;20069;-70
2022/10/06 08:52:06;;;;;;;8.43;6.38;;;;;;;23.21;43.55;96073.03;5002068;28;20103;-71
2022/10/06 08:55:03;;;;;;;10.07;7.00;;;;;;;23.02;43.46;96041.91;5004632;28;20042;-70
2022/10/06 08:57:34;;;;;;;10.02;7.28;;;;;;;23.26;43.87;96066.91;4978857;28;20049;-70
2022/10/06 09:00:02;;;;;;;10.20;6.70;;;;;;;23.28;43.50;96069.88;5009608;28;20168;-71
2022/10/06 09:02:40;;;;;;;8.73;6.60;;;;;;;22.84;43.34;96010.75;4999097;28;20014;-68
2022/10/06 09:05:06;;;;;;;10.00;7.00;;;;;;;23.29;44.00;96071.38;4974923;28;20601;-69
2022/10/06 09:08:11;;;;;;;9.40;6.60;;;;;;;23.31;43.63;96071.63;5000946;28;20049;-69
2022/10/06 09:11:12;;;;;;;8.30;6.38;;;;;;;22.78;44.34;96001.78;5003923;28;20128;-69
2022/10/06 09:13:39;;;;;;;10.13;6.90;;;;;;;23.20;44.18;96063.38;4987991;28;20034;-68
2022/10/06 09:16:06;;;;;;;7.97;6.20;;;;;;;23.31;44.10;96066.19;4984597;28;20486;-68
2022/10/06 09:18:34;;;;;;;10.32;6.70;;;;;;;23.38;44.02;96071.22;4987912;28;20103;-68
2022/10/06 09:21:02;;;;;;;8.73;6.75;;;;;;;23.46;43.92;96055.91;4989177;28;20038;-70
2022/10/06 09:23:46;;;;;;;11.18;6.18;;;;;;;22.99;43.65;96004.00;4973752;28;20054;-70
2022/10/06 09:26:12;;;;;;;9.80;5.93;;;;;;;23.03;43.92;96008.00;4987152;28;20054;-67
2022/10/06 09:28:38;;;;;;;9.52;6.53;;;;;;;23.56;43.40;96049.03;4998492;28;20061;-69
2022/10/06 09:31:17;;;;;;;11.18;6.47;;;;;;;23.48;43.18;96045.25;4991210;28;20045;-69
2022/10/06 09:33:42;;;;;;;12.00;7.05;;;;;;;23.90;38.88;96030.44;4999748;28;20797;-69
2022/10/06 09:36:09;;;;;;;14.05;6.32;;;;;;;23.64;42.53;96045.41;5001575;28;20029;-68
2022/10/06 09:38:48;;;;;;;8.75;6.00;;;;;;;23.13;42.73;95963.00;5003406;28;20121;-68
2022/10/06 09:41:14;;;;;;;8.45;5.88;;;;;;;23.38;42.05;95978.53;5002882;28;20045;-68
2022/10/06 09:43:39;;;;;;;8.40;5.85;;;;;;;23.71;42.09;96036.03;5014040;28;20121;-68
2022/10/06 09:46:26;;;;;;;8.32;5.60;;;;;;;23.99;41.58;96038.44;4984697;28;20108;-68
2022/10/06 09:49:20;;;;;;;8.80;5.85;;;;;;;23.50;42.09;95982.81;5003311;28;20100;-67
2022/10/06 09:52:00;;;;;;;10.48;6.38;;;;;;;23.84;42.08;96031.66;5001065;28;20036;-69
2022/10/06 09:54:27;;;;;;;8.00;5.85;;;;;;;23.48;41.83;95963.47;5002240;28;20910;-67
2022/10/06 09:56:54;;;;;;;8.30;5.90;;;;;;;23.56;42.15;95978.16;4983183;28;20037;-67
2022/10/06 09:59:40;;;;;;;7.13;5.32;;;;;;;23.60;42.57;95995.78;5009696;28;20544;-68
2022/10/06 10:02:29;;;;;;;8.77;6.13;;;;;;;25.38;42.70;96018.69;4898405;28;20484;-59
2022/10/06 10:04:55;;;;;;;8.18;5.35;;;;;;;24.18;39.90;95903.03;4775478;28;20094;-68
2022/10/06 10:07:25;;;;;;;7.85;5.28;;;;;;;24.26;40.13;95958.66;4662117;28;20542;-69
2022/10/06 10:09:51;;;;;;;7.50;4.95;;;;;;;24.60;40.53;96003.94;4876660;28;20098;-68
2022/10/06 10:12:23;;;;;;;8.63;5.53;;;;;;;24.72;40.58;96017.09;4946165;28;20039;-67
2022/10/06 10:14:49;;;;;;;8.57;5.60;;;;;;;24.21;40.44;95961.34;4967104;28;20066;-70
2022/10/06 10:17:20;;;;;;;9.05;6.10;;;;;;;24.44;36.88;96002.66;4966533;28;20124;-67
2022/10/06 10:19:51;;;;;;;8.38;5.40;;;;;;;24.59;38.08;96018.84;4964280;28;20041;-68
2022/10/06 10:22:23;;;;;;;9.10;5.50;;;;;;;24.66;39.66;96012.88;4961524;28;20204;-68
2022/10/06 10:24:54;;;;;;;7.88;5.22;;;;;;;24.75;40.06;96015.38;4959187;28;20051;-69
2022/10/06 10:27:22;;;;;;;7.53;5.20;;;;;;;24.79;39.72;96015.91;4951656;28;20056;-69
2022/10/06 10:30:00;;;;;;;7.35;5.00;;;;;;;24.46;39.50;95961.22;4983279;28;20073;-69
2022/10/06 10:32:48;;;;;;;7.28;4.72;;;;;;;24.83;39.58;96001.50;4945283;28;20046;-67
2022/10/06 10:35:29;;;;;;;7.32;5.20;;;;;;;24.83;39.52;96001.50;4964881;28;20061;-66
2022/10/06 10:38:09;;;;;;;7.13;5.00;;;;;;;24.39;39.57;95928.91;4964564;28;20068;-66
2022/10/06 10:40:41;;;;;;;10.13;4.72;;;;;;;24.18;39.45;95892.09;4975364;28;20043;-66
2022/10/06 10:43:07;;;;;;;7.45;4.68;;;;;;;24.84;39.35;95994.78;4955166;28;20050;-66
2022/10/06 10:45:33;;;;;;;5.72;4.70;;;;;;;24.46;39.54;95939.38;4976282;28;20038;-66
2022/10/06 10:48:03;;;;;;;7.90;4.80;;;;;;;24.52;39.73;95954.50;4982088;28;20104;-67
2022/10/06 10:50:32;;;;;;;5.80;4.38;;;;;;;24.60;39.63;95961.00;4983179;28;20045;-66
2022/10/06 10:53:07;;;;;;;6.77;4.57;;;;;;;24.74;39.65;95976.41;4980378;28;20541;-66
2022/10/06 10:55:44;;;;;;;7.20;4.68;;;;;;;24.76;39.54;95984.09;4965497;28;20070;-66
2022/10/06 10:58:23;;;;;;;6.95;4.40;;;;;;;24.50;39.51;95956.25;4981964;28;20034;-66
2022/10/06 11:00:52;;;;;;;6.95;4.55;;;;;;;24.03;39.58;95871.75;4961143;28;20050;-66
2022/10/06 11:03:17;;;;;;;6.47;4.43;;;;;;;23.78;39.60;95831.00;4935135;28;20030;-66
2022/10/06 11:06:05;;;;;;;5.20;4.10;;;;;;;24.70;39.71;95973.16;4983324;28;20034;-67
2022/10/06 11:08:53;;;;;;;8.02;4.18;;;;;;;24.71;39.63;95971.16;4981806;28;20050;-66
2022/10/06 11:11:57;;;;;;;6.25;4.40;;;;;;;24.67;39.71;95965.22;4971145;28;20042;-67
2022/10/06 11:14:39;;;;;;;5.82;4.60;;;;;;;24.68;39.77;95966.69;4982630;28;20099;-67
2022/10/06 11:17:24;;;;;;;6.95;4.10;;;;;;;24.64;39.40;95950.56;4983199;28;20058;-67
2022/10/06 11:19:49;;;;;;;5.57;4.20;;;;;;;24.66;39.69;95953.53;4961820;28;20046;-67
2022/10/06 11:22:35;;;;;;;6.78;4.15;;;;;;;24.41;39.67;95927.19;5001057;28;20034;-67
2022/10/06 11:25:41;;;;;;;6.05;4.10;;;;;;;24.66;39.79;95953.53;5001420;28;20046;-67
2022/10/06 11:28:13;;;;;;;5.72;3.97;;;;;;;24.66;39.51;95947.31;4970107;28;20365;-68
2022/10/06 11:30:59;;;;;;;6.03;3.85;;;;;;;24.70;39.37;95943.13;4972815;28;20042;-68
2022/10/06 11:33:31;;;;;;;6.07;3.42;;;;;;;24.71;39.12;95932.91;4998908;28;20041;-68
2022/10/06 11:35:56;;;;;;;5.80;3.63;;;;;;;24.56;38.93;95916.06;4982487;28;20180;-67
2022/10/06 11:38:24;;;;;;;7.32;3.65;;;;;;;24.64;38.70;95933.44;4955209;28;20018;-68
2022/10/06 11:41:07;;;;;;;6.53;3.53;;;;;;;24.67;38.48;95926.97;5005271;28;20038;-68
2022/10/06 11:43:41;;;;;;;6.82;3.75;;;;;;;24.47;38.68;95897.19;5004357;28;20038;-68
2022/10/06 11:46:24;;;;;;;4.88;3.45;;;;;;;23.72;38.21;95772.97;4990189;28;20158;-68
2022/10/06 11:48:49;;;;;;;5.28;3.50;;;;;;;24.12;38.28;95827.84;4972634;28;20049;-68